createdAt,value
2019-06-20T00:00:31.457Z,18.60
2019-06-20T00:03:00.346Z,18.60
2019-06-20T00:05:29.041Z,18.70
2019-06-20T00:07:57.596Z,18.70
2019-06-20T00:10:26.194Z,18.70
2019-06-20T00:13:00.314Z,18.60
2019-06-20T00:15:25.064Z,18.50
2019-06-20T00:17:55.744Z,18.50
2019-06-20T00:20:24.424Z,18.50
2019-06-20T00:22:53.056Z,18.50
2019-06-20T00:25:22.377Z,18.50
2019-06-20T00:27:50.941Z,18.50
2019-06-20T00:30:19.677Z,18.50
2019-06-20T00:32:48.422Z,18.50
2019-06-20T00:35:16.968Z,18.50
2019-06-20T00:37:45.537Z,18.50
2019-06-20T00:40:15.149Z,18.50
2019-06-20T00:42:43.711Z,18.50
2019-06-20T00:45:12.917Z,18.40
2019-06-20T00:47:41.567Z,18.40
2019-06-20T00:50:10.282Z,18.30
2019-06-20T00:52:38.839Z,18.20
2019-06-20T00:55:08.339Z,18.30
2019-06-20T00:57:36.903Z,18.30
2019-06-20T01:00:07.286Z,18.20
2019-06-20T01:02:35.861Z,18.20
2019-06-20T01:05:05.476Z,18.20
2019-06-20T01:07:34.027Z,18.10
2019-06-20T01:10:02.723Z,18.20
2019-06-20T01:12:31.359Z,18.10
2019-06-20T01:14:59.909Z,18.10
2019-06-20T01:17:29.274Z,18.10
2019-06-20T01:19:58.375Z,18.10
2019-06-20T01:22:27.051Z,18.10
2019-06-20T01:24:55.632Z,18.10
2019-06-20T01:27:24.200Z,18.00
2019-06-20T01:29:53.651Z,18.00
2019-06-20T01:32:22.249Z,18.00
2019-06-20T01:34:50.819Z,17.90
2019-06-20T01:37:19.458Z,17.90
2019-06-20T01:39:48.336Z,17.80
2019-06-20T01:42:16.883Z,17.80
2019-06-20T01:44:45.454Z,17.80
2019-06-20T01:47:14.041Z,17.70
2019-06-20T01:49:42.522Z,17.70
2019-06-20T01:52:11.119Z,17.70
2019-06-20T01:54:39.679Z,17.80
2019-06-20T01:57:08.221Z,17.80
2019-06-20T01:59:36.855Z,17.80
2019-06-20T02:02:05.515Z,17.80
2019-06-20T02:04:34.076Z,17.80
2019-06-20T02:07:02.645Z,17.70
2019-06-20T02:09:31.226Z,17.70
2019-06-20T02:11:59.855Z,17.80
2019-06-20T02:14:28.652Z,17.80
2019-06-20T02:16:57.226Z,17.80
2019-06-20T02:19:26.237Z,18.00
2019-06-20T02:21:54.862Z,18.00
2019-06-20T02:24:23.405Z,18.00
2019-06-20T02:26:51.992Z,18.00
2019-06-20T02:29:20.630Z,18.00
2019-06-20T02:31:49.236Z,18.10
2019-06-20T02:34:17.791Z,18.10
2019-06-20T02:36:46.382Z,18.00
2019-06-20T02:39:14.973Z,18.10
2019-06-20T02:41:43.656Z,18.10
2019-06-20T02:44:29.442Z,18.10
2019-06-20T02:46:42.468Z,18.10
2019-06-20T02:49:11.107Z,18.00
2019-06-20T02:51:39.789Z,18.00
2019-06-20T02:54:08.375Z,17.90
2019-06-20T02:56:36.978Z,17.80
2019-06-20T02:59:06.189Z,17.80
2019-06-20T03:01:34.842Z,17.70
2019-06-20T03:04:03.406Z,17.70
2019-06-20T03:06:32.049Z,17.80
2019-06-20T03:09:00.619Z,17.70
2019-06-20T03:11:29.264Z,17.60
2019-06-20T03:13:57.838Z,17.50
2019-06-20T03:16:26.583Z,17.40
2019-06-20T03:18:55.177Z,17.40
2019-06-20T03:21:23.714Z,17.40
2019-06-20T03:23:53.099Z,17.40
2019-06-20T03:26:21.812Z,17.50
2019-06-20T03:28:50.502Z,17.40
2019-06-20T03:31:19.036Z,17.40
2019-06-20T03:33:47.595Z,17.40
2019-06-20T03:36:16.191Z,17.40
2019-06-20T03:38:45.642Z,17.50
2019-06-20T03:41:14.217Z,17.50
2019-06-20T03:43:42.771Z,17.50
2019-06-20T03:46:11.448Z,17.50
2019-06-20T03:48:40.064Z,17.50
2019-06-20T03:51:08.641Z,17.40
2019-06-20T03:53:37.235Z,17.40
2019-06-20T03:56:05.852Z,17.50
2019-06-20T03:58:34.523Z,17.60
2019-06-20T04:01:03.277Z,17.70
2019-06-20T04:03:31.814Z,17.80
2019-06-20T04:06:00.378Z,17.80
2019-06-20T04:08:29.086Z,17.90
2019-06-20T04:10:57.604Z,17.90
2019-06-20T04:13:26.169Z,18.00
2019-06-20T04:15:54.770Z,18.00
2019-06-20T04:18:23.362Z,18.00
2019-06-20T04:20:51.927Z,18.00
2019-06-20T04:23:20.584Z,18.00
2019-06-20T04:25:49.162Z,18.00
2019-06-20T04:28:17.846Z,18.00
2019-06-20T04:30:46.383Z,18.00
2019-06-20T04:33:15.015Z,18.00
2019-06-20T04:35:43.677Z,18.00
2019-06-20T04:38:12.266Z,18.10
2019-06-20T04:40:40.826Z,18.10
2019-06-20T04:43:10.369Z,18.20
2019-06-20T04:45:49.669Z,18.40
2019-06-20T04:48:18.225Z,18.50
2019-06-20T04:50:46.731Z,18.60
2019-06-20T04:53:15.395Z,18.70
2019-06-20T04:55:43.949Z,18.80
2019-06-20T04:58:12.569Z,18.80
2019-06-20T05:00:41.090Z,19.00
2019-06-20T05:03:09.717Z,19.10
2019-06-20T05:05:38.285Z,19.20
2019-06-20T05:08:06.930Z,19.30
2019-06-20T05:10:35.495Z,19.40
2019-06-20T05:13:04.121Z,19.60
2019-06-20T05:15:32.719Z,19.70
2019-06-20T05:18:01.269Z,19.80
2019-06-20T05:20:29.822Z,19.70
2019-06-20T05:22:58.500Z,19.80
2019-06-20T05:25:27.485Z,20.00
2019-06-20T05:27:56.135Z,20.10
2019-06-20T05:30:24.825Z,20.10
2019-06-20T05:32:53.393Z,20.40
2019-06-20T05:35:21.937Z,20.80
2019-06-20T05:37:50.546Z,20.80
2019-06-20T05:40:19.449Z,20.60
2019-06-20T05:42:48.040Z,20.70
2019-06-20T05:45:16.990Z,20.60
2019-06-20T05:47:47.044Z,21.00
2019-06-20T05:50:15.677Z,21.20
2019-06-20T05:52:50.188Z,21.30
2019-06-20T05:55:27.906Z,21.00
2019-06-20T05:57:57.895Z,21.20
2019-06-20T06:00:32.212Z,21.30
2019-06-20T06:03:01.359Z,21.40
2019-06-20T06:05:30.027Z,21.50
2019-06-20T06:07:58.748Z,21.80
2019-06-20T06:10:29.092Z,21.50
2019-06-20T06:12:57.732Z,21.60
2019-06-20T06:15:29.439Z,21.50
2019-06-20T06:18:14.129Z,21.70
2019-06-20T06:20:44.775Z,22.40
2019-06-20T06:23:12.464Z,22.10
2019-06-20T06:25:42.285Z,21.60
2019-06-20T06:28:12.476Z,21.80
2019-06-20T06:30:41.199Z,21.70
2019-06-20T06:33:09.769Z,21.60
2019-06-20T06:35:38.494Z,21.50
2019-06-20T06:38:07.098Z,21.60
2019-06-20T06:40:35.764Z,21.60
2019-06-20T06:43:04.417Z,21.70
2019-06-20T06:45:33.142Z,21.60
2019-06-20T06:48:01.760Z,21.40
2019-06-20T06:50:30.529Z,21.30
2019-06-20T06:52:59.229Z,21.30
2019-06-20T06:55:28.046Z,21.40
2019-06-20T06:57:57.079Z,21.40
2019-06-20T07:00:25.909Z,21.20
2019-06-20T07:02:54.847Z,21.20
2019-06-20T07:05:23.596Z,21.40
2019-06-20T07:07:52.409Z,21.40
2019-06-20T07:10:21.786Z,21.50
2019-06-20T07:12:50.537Z,21.60
2019-06-20T07:15:19.723Z,21.30
2019-06-20T07:17:48.288Z,21.50
2019-06-20T07:20:17.461Z,21.40
2019-06-20T07:22:46.262Z,21.50
2019-06-20T07:25:15.204Z,21.40
2019-06-20T07:27:43.838Z,21.40
2019-06-20T07:30:13.284Z,21.30
2019-06-20T07:32:42.010Z,21.10
2019-06-20T07:35:10.980Z,21.00
2019-06-20T07:37:39.695Z,21.00
2019-06-20T07:40:09.312Z,21.00
2019-06-20T07:42:38.587Z,20.90
2019-06-20T07:45:08.593Z,20.90
2019-06-20T07:47:37.410Z,20.70
2019-06-20T07:50:10.778Z,20.70
2019-06-20T07:52:40.244Z,20.70
2019-06-20T07:55:09.423Z,20.80
2019-06-20T07:57:38.047Z,20.90
2019-06-20T08:00:11.338Z,21.00
2019-06-20T08:02:39.977Z,20.80
2019-06-20T08:05:08.993Z,20.80
2019-06-20T08:07:37.559Z,20.90
2019-06-20T08:10:12.167Z,20.80
2019-06-20T08:12:40.740Z,21.00
2019-06-20T08:15:15.666Z,21.10
2019-06-20T08:17:42.921Z,21.10
2019-06-20T08:20:12.757Z,21.00
2019-06-20T08:22:41.652Z,21.20
2019-06-20T08:25:13.661Z,21.30
2019-06-20T08:27:52.677Z,21.20
2019-06-20T08:30:32.241Z,21.10
2019-06-20T08:33:03.627Z,21.20
2019-06-20T08:35:32.647Z,21.50
2019-06-20T08:38:03.457Z,21.80
2019-06-20T08:40:35.629Z,21.80
2019-06-20T08:43:04.487Z,21.80
2019-06-20T08:45:36.240Z,22.10
2019-06-20T08:48:04.965Z,22.10
2019-06-20T08:50:33.777Z,22.00
2019-06-20T08:53:03.674Z,22.10
2019-06-20T08:55:32.414Z,22.10
2019-06-20T08:58:01.710Z,22.30
2019-06-20T09:00:34.581Z,22.60
2019-06-20T09:05:32.869Z,22.60
2019-06-20T09:10:37.541Z,22.90
2019-06-20T09:13:06.570Z,23.00
2019-06-20T09:15:35.374Z,22.80
2019-06-20T09:18:04.533Z,22.90
2019-06-20T09:20:33.266Z,22.70
2019-06-20T09:23:03.327Z,23.00
2019-06-20T09:25:32.032Z,23.50
2019-06-20T09:28:02.529Z,23.40
2019-06-20T09:30:31.804Z,23.60
2019-06-20T09:33:00.358Z,23.80
2019-06-20T09:35:29.249Z,23.40
2019-06-20T09:37:59.253Z,23.50
2019-06-20T09:40:28.297Z,23.20
2019-06-20T09:42:57.013Z,22.70
2019-06-20T09:45:26.595Z,21.90
2019-06-20T09:47:56.056Z,22.10
2019-06-20T09:50:25.617Z,21.90
2019-06-20T09:52:54.924Z,21.60
2019-06-20T09:55:24.975Z,21.50
2019-06-20T09:57:53.787Z,21.50
2019-06-20T10:00:25.711Z,21.40
2019-06-20T10:02:55.958Z,21.60
2019-06-20T10:05:24.911Z,21.70
2019-06-20T10:07:54.488Z,21.80
2019-06-20T10:10:28.766Z,22.10
2019-06-20T10:12:57.790Z,22.10
2019-06-20T10:15:28.990Z,22.50
2019-06-20T10:17:57.685Z,22.20
2019-06-20T10:20:27.684Z,22.50
2019-06-20T10:22:57.490Z,22.80
2019-06-20T10:25:26.373Z,22.80
2019-06-20T10:27:55.063Z,22.90
2019-06-20T10:30:25.686Z,23.30
2019-06-20T10:32:54.253Z,23.60
2019-06-20T10:35:23.260Z,23.80
2019-06-20T10:37:52.929Z,23.40
2019-06-20T10:40:22.343Z,24.10
2019-06-20T10:42:52.751Z,23.80
2019-06-20T10:45:23.169Z,23.60
2019-06-20T10:47:52.916Z,24.10
2019-06-20T10:50:22.085Z,24.60
2019-06-20T10:52:51.862Z,24.40
2019-06-20T10:55:20.772Z,23.90
2019-06-20T10:57:51.508Z,23.50
2019-06-20T11:00:30.981Z,23.80
2019-06-20T11:02:53.561Z,23.60
2019-06-20T11:05:22.455Z,23.30
2019-06-20T11:07:51.361Z,23.10
2019-06-20T11:10:20.494Z,23.00
2019-06-20T11:12:55.045Z,22.80
2019-06-20T11:15:21.070Z,22.60
2019-06-20T11:17:49.731Z,22.40
2019-06-20T11:20:20.301Z,22.30
2019-06-20T11:22:52.364Z,22.20
2019-06-20T11:25:21.317Z,22.20
2019-06-20T11:27:52.050Z,22.20
2019-06-20T11:30:44.998Z,22.10
2019-06-20T11:33:02.009Z,22.20
2019-06-20T11:35:30.841Z,22.30
2019-06-20T11:37:59.435Z,22.30
2019-06-20T11:40:28.344Z,22.40
2019-06-20T11:42:56.932Z,22.30
2019-06-20T11:45:26.712Z,22.30
2019-06-20T11:47:55.461Z,22.20
2019-06-20T11:50:24.179Z,22.40
2019-06-20T11:52:52.788Z,22.60
2019-06-20T11:55:21.856Z,22.60
2019-06-20T11:57:50.459Z,22.80
2019-06-20T12:00:21.197Z,22.70
2019-06-20T12:02:50.423Z,22.50
2019-06-20T12:05:19.456Z,22.70
2019-06-20T12:07:49.806Z,22.80
2019-06-20T12:10:21.565Z,23.00
2019-06-20T12:12:50.238Z,23.30
2019-06-20T12:15:19.384Z,23.00
2019-06-20T12:17:49.341Z,23.30
2019-06-20T12:20:18.930Z,23.40
2019-06-20T12:22:50.480Z,23.60
2019-06-20T12:25:18.490Z,23.30
2019-06-20T12:27:47.604Z,23.40
2019-06-20T12:30:18.046Z,23.30
2019-06-20T12:32:52.873Z,23.40
2019-06-20T12:35:22.609Z,23.90
2019-06-20T12:37:52.126Z,23.60
2019-06-20T12:40:25.937Z,23.30
2019-06-20T12:42:54.651Z,23.10
2019-06-20T12:45:23.344Z,23.30
2019-06-20T12:47:52.291Z,23.80
2019-06-20T12:50:21.262Z,23.40
2019-06-20T12:52:50.386Z,23.60
2019-06-20T12:55:19.167Z,23.60
2019-06-20T12:57:48.504Z,23.80
2019-06-20T13:00:19.466Z,23.60
2019-06-20T13:02:49.727Z,23.60
2019-06-20T13:05:19.270Z,23.60
2019-06-20T13:07:48.068Z,23.00
2019-06-20T13:10:18.654Z,23.30
2019-06-20T13:12:48.719Z,23.50
2019-06-20T13:15:17.819Z,23.60
2019-06-20T13:17:47.276Z,23.20
2019-06-20T13:20:16.416Z,23.40
2019-06-20T13:22:46.463Z,23.30
2019-06-20T13:25:15.259Z,23.10
2019-06-20T13:27:43.962Z,23.20
2019-06-20T13:30:14.344Z,23.40
2019-06-20T13:32:43.857Z,23.60
2019-06-20T13:35:13.930Z,23.60
2019-06-20T13:37:43.496Z,23.80
2019-06-20T13:40:14.079Z,24.00
2019-06-20T13:42:44.032Z,24.10
2019-06-20T13:45:25.041Z,24.40
2019-06-20T13:47:54.175Z,24.60
2019-06-20T13:50:26.006Z,24.50
2019-06-20T13:52:55.312Z,24.60
2019-06-20T13:55:24.037Z,24.60
2019-06-20T13:57:52.659Z,24.70
2019-06-20T14:00:23.469Z,24.60
2019-06-20T14:02:52.223Z,24.60
2019-06-20T14:05:21.000Z,24.50
2019-06-20T14:07:53.252Z,24.90
2019-06-20T14:10:20.567Z,25.30
2019-06-20T14:12:49.309Z,25.20
2019-06-20T14:15:19.443Z,24.90
2019-06-20T14:17:49.799Z,25.20
2019-06-20T14:20:19.834Z,24.70
2019-06-20T14:22:49.418Z,24.60
2019-06-20T14:25:18.741Z,24.70
2019-06-20T14:27:48.694Z,25.10
2019-06-20T14:30:18.899Z,25.10
2019-06-20T14:32:47.657Z,25.40
2019-06-20T14:35:19.452Z,25.20
2019-06-20T14:37:49.562Z,25.10
2019-06-20T14:40:18.594Z,24.90
2019-06-20T14:42:47.845Z,24.50
2019-06-20T14:45:17.157Z,24.50
2019-06-20T14:47:45.841Z,24.80
2019-06-20T14:50:15.540Z,25.20
2019-06-20T14:52:46.133Z,25.20
2019-06-20T14:55:14.822Z,25.50
2019-06-20T14:57:44.662Z,25.20
2019-06-20T15:00:14.964Z,25.00
2019-06-20T15:02:45.342Z,25.20
2019-06-20T15:05:18.575Z,25.40
2019-06-20T15:07:49.262Z,25.10
2019-06-20T15:10:18.823Z,25.20
2019-06-20T15:12:49.440Z,25.40
2019-06-20T15:15:18.204Z,25.30
2019-06-20T15:17:49.866Z,25.20
2019-06-20T15:20:18.536Z,25.40
2019-06-20T15:22:48.799Z,25.60
2019-06-20T15:25:17.914Z,25.90
2019-06-20T15:27:47.962Z,26.00
2019-06-20T15:30:17.782Z,25.90
2019-06-20T15:33:00.979Z,26.00
2019-06-20T15:35:17.512Z,25.50
2019-06-20T15:37:47.828Z,25.60
2019-06-20T15:40:17.199Z,25.80
2019-06-20T15:42:47.107Z,25.90
2019-06-20T15:45:16.812Z,26.10
2019-06-20T15:47:45.582Z,25.70
2019-06-20T15:50:16.215Z,25.60
2019-06-20T15:52:46.007Z,25.30
2019-06-20T15:55:17.648Z,25.00
2019-06-20T15:57:46.307Z,25.00
2019-06-20T16:00:15.583Z,24.90
2019-06-20T16:02:44.622Z,24.70
2019-06-20T16:05:13.326Z,24.60
2019-06-20T16:07:42.086Z,24.60
2019-06-20T16:10:10.984Z,24.60
2019-06-20T16:12:39.598Z,24.50
2019-06-20T16:15:11.972Z,24.50
2019-06-20T16:17:40.603Z,24.60
2019-06-20T16:20:09.613Z,24.60
2019-06-20T16:22:38.294Z,24.60
2019-06-20T16:25:08.459Z,24.50
2019-06-20T16:27:37.079Z,24.30
2019-06-20T16:30:09.217Z,24.10
2019-06-20T16:32:37.841Z,23.90
2019-06-20T16:35:09.806Z,23.80
2019-06-20T16:37:38.562Z,22.70
2019-06-20T16:40:08.269Z,21.90
2019-06-20T16:42:37.284Z,21.50
2019-06-20T16:45:08.912Z,21.50
2019-06-20T16:47:37.713Z,21.50
2019-06-20T16:50:07.516Z,21.10
2019-06-20T16:52:36.466Z,21.00
2019-06-20T16:55:06.897Z,20.80
2019-06-20T16:57:35.594Z,20.70
2019-06-20T17:00:07.533Z,20.40
2019-06-20T17:02:36.169Z,20.50
2019-06-20T17:05:06.595Z,20.50
2019-06-20T17:07:36.276Z,20.30
2019-06-20T17:10:06.867Z,20.10
2019-06-20T17:12:35.577Z,19.90
2019-06-20T17:15:06.832Z,20.00
2019-06-20T17:17:35.448Z,20.00
2019-06-20T17:20:07.319Z,20.20
2019-06-20T17:22:35.937Z,20.20
2019-06-20T17:25:07.493Z,20.30
2019-06-20T17:27:37.102Z,20.40
2019-06-20T17:30:08.841Z,20.40
2019-06-20T17:32:37.604Z,20.50
2019-06-20T17:35:07.835Z,20.50
2019-06-20T17:37:36.524Z,20.60
2019-06-20T17:40:10.708Z,20.70
2019-06-20T17:42:39.272Z,20.80
2019-06-20T17:45:09.096Z,20.60
2019-06-20T17:47:37.686Z,20.70
2019-06-20T17:50:07.886Z,20.80
2019-06-20T17:52:36.599Z,20.90
2019-06-20T17:55:08.389Z,20.90
2019-06-20T17:57:37.570Z,20.90
2019-06-20T18:00:15.160Z,20.90
2019-06-20T18:02:43.782Z,20.90
2019-06-20T18:05:12.677Z,20.80
2019-06-20T18:07:41.406Z,20.60
2019-06-20T18:10:10.902Z,20.80
2019-06-20T18:12:39.612Z,20.80
2019-06-20T18:15:09.089Z,20.30
2019-06-20T18:17:37.697Z,20.30
2019-06-20T18:20:08.022Z,19.70
2019-06-20T18:22:36.824Z,19.60
2019-06-20T18:25:06.660Z,19.50
2019-06-20T18:27:35.333Z,19.50
2019-06-20T18:30:08.680Z,19.60
2019-06-20T18:32:38.832Z,19.50
2019-06-20T18:35:08.130Z,19.50
2019-06-20T18:37:36.872Z,19.50
2019-06-20T18:40:07.276Z,19.30
2019-06-20T18:42:35.894Z,19.20
2019-06-20T18:45:08.659Z,19.10
2019-06-20T18:47:37.269Z,18.90
2019-06-20T18:50:06.983Z,18.40
2019-06-20T18:52:50.924Z,18.80
2019-06-20T18:55:08.417Z,18.90
2019-06-20T18:57:37.067Z,19.00
2019-06-20T19:00:08.123Z,19.10
2019-06-20T19:02:36.834Z,19.20
2019-06-20T19:05:06.984Z,19.20
2019-06-20T19:07:35.862Z,19.20
2019-06-20T19:10:06.929Z,19.20
2019-06-20T19:12:35.705Z,19.20
2019-06-20T19:15:10.544Z,19.20
2019-06-20T19:17:39.195Z,19.00
2019-06-20T19:20:08.300Z,19.00
2019-06-20T19:22:36.961Z,18.80
2019-06-20T19:25:07.805Z,18.90
2019-06-20T19:27:45.802Z,18.80
2019-06-20T19:30:08.626Z,18.70
2019-06-20T19:32:37.252Z,18.50
2019-06-20T19:35:10.290Z,18.50
2019-06-20T19:37:39.369Z,18.40
2019-06-20T19:40:08.875Z,18.30
2019-06-20T19:42:37.707Z,18.20
2019-06-20T19:45:10.632Z,18.20
2019-06-20T19:47:39.616Z,18.30
2019-06-20T19:50:08.724Z,18.30
2019-06-20T19:52:37.557Z,18.30
2019-06-20T19:55:06.667Z,18.40
2019-06-20T19:57:35.273Z,18.30
2019-06-20T20:00:08.391Z,18.40
2019-06-20T20:02:37.442Z,18.30
2019-06-20T20:05:19.211Z,18.40
2019-06-20T20:07:41.903Z,18.30
2019-06-20T20:10:10.989Z,18.20
2019-06-20T20:12:49.601Z,18.20
2019-06-20T20:15:20.662Z,18.30
2019-06-20T20:17:49.226Z,18.20
2019-06-20T20:20:17.842Z,18.30
2019-06-20T20:22:46.342Z,18.20
2019-06-20T20:25:15.260Z,18.20
2019-06-20T20:27:43.812Z,18.20
2019-06-20T20:30:13.031Z,18.20
2019-06-20T20:32:41.654Z,18.10
2019-06-20T20:35:11.275Z,18.10
2019-06-20T20:37:39.854Z,18.10
2019-06-20T20:40:09.451Z,18.00
2019-06-20T20:42:38.990Z,18.10
2019-06-20T20:45:08.137Z,18.10
2019-06-20T20:47:36.698Z,18.00
2019-06-20T20:50:07.097Z,18.10
2019-06-20T20:52:35.783Z,18.10
2019-06-20T20:55:06.305Z,17.90
2019-06-20T20:57:34.919Z,17.90
2019-06-20T21:00:06.851Z,17.80
2019-06-20T21:02:36.174Z,17.80
2019-06-20T21:05:05.977Z,17.80
2019-06-20T21:07:34.651Z,18.00
2019-06-20T21:10:04.722Z,17.90
2019-06-20T21:12:33.274Z,18.00
2019-06-20T21:15:01.862Z,17.90
2019-06-20T21:17:30.419Z,17.90
2019-06-20T21:19:58.989Z,18.00
2019-06-20T21:22:27.575Z,17.80
2019-06-20T21:24:56.282Z,17.70
2019-06-20T21:27:24.922Z,17.60
2019-06-20T21:29:53.503Z,17.60
2019-06-20T21:32:22.069Z,17.70
2019-06-20T21:34:50.627Z,17.60
2019-06-20T21:37:19.218Z,17.60
2019-06-20T21:39:47.848Z,17.50
2019-06-20T21:42:16.406Z,17.30
2019-06-20T21:44:45.127Z,17.10
2019-06-20T21:47:13.719Z,17.10
2019-06-20T21:49:42.282Z,17.10
2019-06-20T21:52:10.850Z,17.10
2019-06-20T21:54:39.454Z,17.10
2019-06-20T21:57:08.039Z,17.10
2019-06-20T21:59:36.589Z,17.20
2019-06-20T22:02:06.927Z,17.10
2019-06-20T22:04:37.106Z,17.20
2019-06-20T22:07:05.750Z,17.30
2019-06-20T22:09:34.569Z,17.40
2019-06-20T22:12:03.203Z,17.50
2019-06-20T22:14:32.557Z,17.50
2019-06-20T22:17:01.241Z,17.60
2019-06-20T22:19:29.829Z,17.70
2019-06-20T22:21:58.404Z,17.60
2019-06-20T22:24:26.967Z,17.60
2019-06-20T22:26:56.301Z,17.50
2019-06-20T22:29:24.934Z,17.50
2019-06-20T22:31:53.514Z,17.50
2019-06-20T22:34:22.081Z,17.50
2019-06-20T22:36:50.672Z,17.70
2019-06-20T22:39:19.234Z,17.90
2019-06-20T22:41:47.788Z,17.90
2019-06-20T22:44:16.454Z,17.90
2019-06-20T22:46:45.009Z,17.90
2019-06-20T22:49:26.896Z,17.80
2019-06-20T22:51:55.505Z,17.80
2019-06-20T22:54:24.214Z,17.80
2019-06-20T22:56:52.805Z,17.80
2019-06-20T22:59:21.349Z,17.90
2019-06-20T23:01:49.909Z,17.90
2019-06-20T23:04:18.497Z,17.90
2019-06-20T23:06:56.228Z,18.00
2019-06-20T23:09:17.379Z,17.90
2019-06-20T23:11:46.137Z,18.00
2019-06-20T23:14:14.744Z,17.90
2019-06-20T23:16:44.401Z,17.90
2019-06-20T23:19:13.008Z,17.70
2019-06-20T23:21:41.581Z,17.60
2019-06-20T23:24:10.152Z,17.60
2019-06-20T23:26:38.719Z,17.80
2019-06-20T23:29:22.589Z,17.80
2019-06-20T23:31:53.333Z,17.80
2019-06-20T23:34:22.077Z,17.80
2019-06-20T23:36:50.707Z,17.60
2019-06-20T23:39:19.287Z,17.40
2019-06-20T23:41:47.991Z,17.50
2019-06-20T23:44:16.529Z,17.70
2019-06-20T23:46:45.265Z,17.70
2019-06-20T23:49:13.914Z,17.50
2019-06-20T23:51:46.533Z,17.40
2019-06-20T23:54:15.164Z,17.30
2019-06-20T23:56:43.844Z,17.30
2019-06-20T23:59:12.414Z,17.30
